sensor_id;sensor_type;location;lat;lon;timestamp;P1;durP1;ratioP1;P2;durP2;ratioP2
74503;SDS011;62988;55.776;37.544;2023-09-19T00:00:41;15.82;;;6.80;;
74503;SDS011;62988;55.776;37.544;2023-09-19T00:03:07;15.75;;;7.57;;
74503;SDS011;62988;55.776;37.544;2023-09-19T00:05:34;13.77;;;6.82;;
74503;SDS011;62988;55.776;37.544;2023-09-19T00:08:00;12.43;;;6.82;;
74503;SDS011;62988;55.776;37.544;2023-09-19T00:10:26;12.07;;;6.20;;
74503;SDS011;62988;55.776;37.544;2023-09-19T00:12:52;18.30;;;7.10;;
74503;SDS011;62988;55.776;37.544;2023-09-19T00:15:21;13.18;;;6.90;;
74503;SDS011;62988;55.776;37.544;2023-09-19T00:17:46;14.32;;;6.75;;
74503;SDS011;62988;55.776;37.544;2023-09-19T00:20:12;12.65;;;6.40;;
74503;SDS011;62988;55.776;37.544;2023-09-19T00:22:41;14.38;;;6.95;;
74503;SDS011;62988;55.776;37.544;2023-09-19T00:25:09;16.77;;;7.30;;
74503;SDS011;62988;55.776;37.544;2023-09-19T00:27:38;13.57;;;6.18;;
74503;SDS011;62988;55.776;37.544;2023-09-19T00:30:10;16.35;;;6.88;;
74503;SDS011;62988;55.776;37.544;2023-09-19T00:32:40;15.13;;;6.78;;
74503;SDS011;62988;55.776;37.544;2023-09-19T00:35:05;12.88;;;7.47;;
74503;SDS011;62988;55.776;37.544;2023-09-19T00:37:30;13.07;;;7.30;;
74503;SDS011;62988;55.776;37.544;2023-09-19T00:39:56;14.17;;;7.40;;
74503;SDS011;62988;55.776;37.544;2023-09-19T00:42:21;13.00;;;7.50;;
74503;SDS011;62988;55.776;37.544;2023-09-19T00:44:47;12.97;;;7.23;;
74503;SDS011;62988;55.776;37.544;2023-09-19T00:47:12;16.90;;;7.25;;
74503;SDS011;62988;55.776;37.544;2023-09-19T00:49:43;10.68;;;6.70;;
74503;SDS011;62988;55.776;37.544;2023-09-19T00:52:08;13.23;;;7.15;;
74503;SDS011;62988;55.776;37.544;2023-09-19T00:54:35;15.43;;;7.22;;
74503;SDS011;62988;55.776;37.544;2023-09-19T00:57:01;15.75;;;7.82;;
74503;SDS011;62988;55.776;37.544;2023-09-19T00:59:26;14.10;;;7.35;;
74503;SDS011;62988;55.776;37.544;2023-09-19T01:01:52;17.73;;;7.78;;
74503;SDS011;62988;55.776;37.544;2023-09-19T01:04:19;12.85;;;7.28;;
74503;SDS011;62988;55.776;37.544;2023-09-19T01:06:45;13.15;;;7.05;;
74503;SDS011;62988;55.776;37.544;2023-09-19T01:09:11;13.95;;;7.32;;
74503;SDS011;62988;55.776;37.544;2023-09-19T01:11:40;16.17;;;7.32;;
74503;SDS011;62988;55.776;37.544;2023-09-19T01:14:22;16.33;;;7.45;;
74503;SDS011;62988;55.776;37.544;2023-09-19T01:16:56;14.60;;;8.00;;
74503;SDS011;62988;55.776;37.544;2023-09-19T01:29:39;15.88;;;7.90;;
74503;SDS011;62988;55.776;37.544;2023-09-19T01:32:08;12.52;;;7.43;;
74503;SDS011;62988;55.776;37.544;2023-09-19T01:37:20;10.95;;;6.63;;
74503;SDS011;62988;55.776;37.544;2023-09-19T01:39:59;14.77;;;7.88;;
74503;SDS011;62988;55.776;37.544;2023-09-19T01:50:17;13.07;;;6.97;;
74503;SDS011;62988;55.776;37.544;2023-09-19T01:52:57;14.10;;;8.55;;
74503;SDS011;62988;55.776;37.544;2023-09-19T01:55:23;16.13;;;8.23;;
74503;SDS011;62988;55.776;37.544;2023-09-19T01:57:58;14.60;;;7.32;;
74503;SDS011;62988;55.776;37.544;2023-09-19T02:00:26;17.52;;;8.27;;
74503;SDS011;62988;55.776;37.544;2023-09-19T02:02:52;13.38;;;7.88;;
74503;SDS011;62988;55.776;37.544;2023-09-19T02:05:23;15.73;;;8.10;;
74503;SDS011;62988;55.776;37.544;2023-09-19T02:07:58;15.30;;;8.13;;
74503;SDS011;62988;55.776;37.544;2023-09-19T02:10:23;12.60;;;8.45;;
74503;SDS011;62988;55.776;37.544;2023-09-19T02:12:49;16.57;;;8.53;;
74503;SDS011;62988;55.776;37.544;2023-09-19T02:15:15;15.98;;;8.98;;
74503;SDS011;62988;55.776;37.544;2023-09-19T02:17:41;17.20;;;8.68;;
74503;SDS011;62988;55.776;37.544;2023-09-19T02:20:07;14.02;;;8.23;;
74503;SDS011;62988;55.776;37.544;2023-09-19T02:22:35;19.02;;;8.45;;
74503;SDS011;62988;55.776;37.544;2023-09-19T02:25:00;14.67;;;7.87;;
74503;SDS011;62988;55.776;37.544;2023-09-19T02:29:55;17.77;;;8.27;;
74503;SDS011;62988;55.776;37.544;2023-09-19T02:32:21;17.63;;;8.25;;
74503;SDS011;62988;55.776;37.544;2023-09-19T02:34:46;17.20;;;9.48;;
74503;SDS011;62988;55.776;37.544;2023-09-19T02:37:11;16.03;;;8.90;;
74503;SDS011;62988;55.776;37.544;2023-09-19T02:39:38;14.82;;;7.82;;
74503;SDS011;62988;55.776;37.544;2023-09-19T02:42:04;16.50;;;8.60;;
74503;SDS011;62988;55.776;37.544;2023-09-19T02:44:29;17.48;;;8.93;;
74503;SDS011;62988;55.776;37.544;2023-09-19T02:46:55;20.60;;;7.77;;
74503;SDS011;62988;55.776;37.544;2023-09-19T02:49:22;18.55;;;8.52;;
74503;SDS011;62988;55.776;37.544;2023-09-19T02:51:47;15.93;;;7.93;;
74503;SDS011;62988;55.776;37.544;2023-09-19T02:54:13;17.63;;;9.07;;
74503;SDS011;62988;55.776;37.544;2023-09-19T02:56:38;15.93;;;8.32;;
74503;SDS011;62988;55.776;37.544;2023-09-19T02:59:04;19.48;;;9.25;;
74503;SDS011;62988;55.776;37.544;2023-09-19T03:01:30;21.77;;;8.63;;
74503;SDS011;62988;55.776;37.544;2023-09-19T03:03:56;15.20;;;9.10;;
74503;SDS011;62988;55.776;37.544;2023-09-19T03:06:21;21.23;;;7.97;;
74503;SDS011;62988;55.776;37.544;2023-09-19T03:08:47;16.88;;;8.85;;
74503;SDS011;62988;55.776;37.544;2023-09-19T03:11:14;14.90;;;7.63;;
74503;SDS011;62988;55.776;37.544;2023-09-19T03:13:41;14.80;;;7.05;;
74503;SDS011;62988;55.776;37.544;2023-09-19T03:16:07;18.38;;;8.32;;
74503;SDS011;62988;55.776;37.544;2023-09-19T03:18:36;16.70;;;8.85;;
74503;SDS011;62988;55.776;37.544;2023-09-19T03:21:01;14.63;;;8.23;;
74503;SDS011;62988;55.776;37.544;2023-09-19T03:23:27;17.45;;;7.97;;
74503;SDS011;62988;55.776;37.544;2023-09-19T03:25:53;17.52;;;8.93;;
74503;SDS011;62988;55.776;37.544;2023-09-19T03:28:19;17.52;;;8.77;;
74503;SDS011;62988;55.776;37.544;2023-09-19T03:30:46;18.25;;;8.82;;
74503;SDS011;62988;55.776;37.544;2023-09-19T03:33:11;16.23;;;8.18;;
74503;SDS011;62988;55.776;37.544;2023-09-19T03:35:37;14.93;;;8.07;;
74503;SDS011;62988;55.776;37.544;2023-09-19T03:38:03;14.23;;;7.60;;
74503;SDS011;62988;55.776;37.544;2023-09-19T03:40:28;16.33;;;8.95;;
74503;SDS011;62988;55.776;37.544;2023-09-19T03:42:54;17.23;;;7.70;;
74503;SDS011;62988;55.776;37.544;2023-09-19T03:45:20;16.13;;;8.55;;
74503;SDS011;62988;55.776;37.544;2023-09-19T03:47:45;13.02;;;7.50;;
74503;SDS011;62988;55.776;37.544;2023-09-19T03:50:13;17.02;;;8.32;;
74503;SDS011;62988;55.776;37.544;2023-09-19T03:52:45;20.00;;;8.50;;
74503;SDS011;62988;55.776;37.544;2023-09-19T03:55:10;16.27;;;8.40;;
74503;SDS011;62988;55.776;37.544;2023-09-19T03:57:35;15.50;;;8.30;;
74503;SDS011;62988;55.776;37.544;2023-09-19T04:00:01;16.42;;;8.95;;
74503;SDS011;62988;55.776;37.544;2023-09-19T04:02:26;18.02;;;9.43;;
74503;SDS011;62988;55.776;37.544;2023-09-19T04:04:58;19.25;;;9.82;;
74503;SDS011;62988;55.776;37.544;2023-09-19T04:07:23;17.15;;;9.52;;
74503;SDS011;62988;55.776;37.544;2023-09-19T04:09:50;17.55;;;9.50;;
74503;SDS011;62988;55.776;37.544;2023-09-19T04:12:18;19.15;;;9.38;;
74503;SDS011;62988;55.776;37.544;2023-09-19T04:14:43;32.13;;;10.27;;
74503;SDS011;62988;55.776;37.544;2023-09-19T04:17:09;24.23;;;11.63;;
74503;SDS011;62988;55.776;37.544;2023-09-19T04:19:35;22.58;;;10.73;;
74503;SDS011;62988;55.776;37.544;2023-09-19T04:22:00;21.13;;;11.32;;
74503;SDS011;62988;55.776;37.544;2023-09-19T04:24:26;20.75;;;11.95;;
74503;SDS011;62988;55.776;37.544;2023-09-19T04:26:51;21.05;;;11.90;;
74503;SDS011;62988;55.776;37.544;2023-09-19T04:29:17;21.55;;;12.00;;
74503;SDS011;62988;55.776;37.544;2023-09-19T04:31:44;22.92;;;11.98;;
74503;SDS011;62988;55.776;37.544;2023-09-19T04:34:11;21.42;;;13.32;;
74503;SDS011;62988;55.776;37.544;2023-09-19T04:36:39;21.67;;;12.65;;
74503;SDS011;62988;55.776;37.544;2023-09-19T04:39:05;26.47;;;12.67;;
74503;SDS011;62988;55.776;37.544;2023-09-19T04:41:30;24.45;;;12.18;;
74503;SDS011;62988;55.776;37.544;2023-09-19T04:43:55;23.05;;;11.32;;
74503;SDS011;62988;55.776;37.544;2023-09-19T04:46:21;24.37;;;12.80;;
74503;SDS011;62988;55.776;37.544;2023-09-19T04:48:46;23.93;;;13.00;;
74503;SDS011;62988;55.776;37.544;2023-09-19T04:51:11;27.93;;;12.23;;
74503;SDS011;62988;55.776;37.544;2023-09-19T04:53:37;25.80;;;12.70;;
74503;SDS011;62988;55.776;37.544;2023-09-19T04:56:02;27.60;;;12.57;;
74503;SDS011;62988;55.776;37.544;2023-09-19T04:58:28;20.15;;;11.45;;
74503;SDS011;62988;55.776;37.544;2023-09-19T05:00:54;22.27;;;11.02;;
74503;SDS011;62988;55.776;37.544;2023-09-19T05:03:19;25.63;;;12.48;;
74503;SDS011;62988;55.776;37.544;2023-09-19T05:05:45;19.85;;;10.68;;
74503;SDS011;62988;55.776;37.544;2023-09-19T05:08:11;19.67;;;10.93;;
74503;SDS011;62988;55.776;37.544;2023-09-19T05:10:39;23.95;;;10.40;;
74503;SDS011;62988;55.776;37.544;2023-09-19T05:13:05;23.65;;;11.07;;
74503;SDS011;62988;55.776;37.544;2023-09-19T05:15:32;21.13;;;9.73;;
74503;SDS011;62988;55.776;37.544;2023-09-19T05:17:57;21.20;;;9.37;;
74503;SDS011;62988;55.776;37.544;2023-09-19T05:20:22;21.07;;;10.67;;
74503;SDS011;62988;55.776;37.544;2023-09-19T05:23:01;15.65;;;8.43;;
74503;SDS011;62988;55.776;37.544;2023-09-19T05:25:27;15.80;;;7.40;;
74503;SDS011;62988;55.776;37.544;2023-09-19T05:27:55;27.08;;;11.82;;
74503;SDS011;62988;55.776;37.544;2023-09-19T05:30:20;18.05;;;10.00;;
74503;SDS011;62988;55.776;37.544;2023-09-19T05:32:45;19.93;;;9.20;;
74503;SDS011;62988;55.776;37.544;2023-09-19T05:35:10;17.17;;;9.47;;
74503;SDS011;62988;55.776;37.544;2023-09-19T05:37:38;18.55;;;9.30;;
74503;SDS011;62988;55.776;37.544;2023-09-19T05:40:03;18.13;;;9.27;;
74503;SDS011;62988;55.776;37.544;2023-09-19T05:42:32;19.30;;;9.75;;
74503;SDS011;62988;55.776;37.544;2023-09-19T05:44:57;20.88;;;9.25;;
74503;SDS011;62988;55.776;37.544;2023-09-19T05:47:23;19.05;;;9.43;;
74503;SDS011;62988;55.776;37.544;2023-09-19T05:49:50;21.15;;;9.48;;
74503;SDS011;62988;55.776;37.544;2023-09-19T05:52:15;19.63;;;9.82;;
74503;SDS011;62988;55.776;37.544;2023-09-19T05:54:42;18.90;;;9.60;;
74503;SDS011;62988;55.776;37.544;2023-09-19T05:57:08;16.80;;;8.30;;
74503;SDS011;62988;55.776;37.544;2023-09-19T05:59:33;23.10;;;9.80;;
74503;SDS011;62988;55.776;37.544;2023-09-19T06:01:59;18.65;;;9.77;;
74503;SDS011;62988;55.776;37.544;2023-09-19T06:04:25;18.58;;;9.77;;
74503;SDS011;62988;55.776;37.544;2023-09-19T06:06:50;17.30;;;9.00;;
74503;SDS011;62988;55.776;37.544;2023-09-19T06:09:16;17.67;;;10.45;;
74503;SDS011;62988;55.776;37.544;2023-09-19T06:11:42;17.83;;;9.85;;
74503;SDS011;62988;55.776;37.544;2023-09-19T06:14:07;21.73;;;11.13;;
74503;SDS011;62988;55.776;37.544;2023-09-19T06:16:33;26.03;;;10.27;;
74503;SDS011;62988;55.776;37.544;2023-09-19T06:18:58;26.27;;;11.40;;
74503;SDS011;62988;55.776;37.544;2023-09-19T06:21:26;28.10;;;10.50;;
74503;SDS011;62988;55.776;37.544;2023-09-19T06:23:52;20.98;;;9.80;;
74503;SDS011;62988;55.776;37.544;2023-09-19T06:26:18;16.25;;;9.73;;
74503;SDS011;62988;55.776;37.544;2023-09-19T06:28:43;27.57;;;10.20;;
74503;SDS011;62988;55.776;37.544;2023-09-19T06:31:09;22.33;;;10.18;;
74503;SDS011;62988;55.776;37.544;2023-09-19T06:33:37;17.88;;;8.93;;
74503;SDS011;62988;55.776;37.544;2023-09-19T06:36:04;20.98;;;10.40;;
74503;SDS011;62988;55.776;37.544;2023-09-19T06:38:29;16.52;;;9.25;;
74503;SDS011;62988;55.776;37.544;2023-09-19T06:40:56;17.17;;;9.75;;
74503;SDS011;62988;55.776;37.544;2023-09-19T06:43:22;24.48;;;11.77;;
74503;SDS011;62988;55.776;37.544;2023-09-19T06:45:48;22.00;;;10.15;;
74503;SDS011;62988;55.776;37.544;2023-09-19T06:48:16;18.98;;;9.75;;
74503;SDS011;62988;55.776;37.544;2023-09-19T06:50:41;20.20;;;10.30;;
74503;SDS011;62988;55.776;37.544;2023-09-19T06:53:09;25.25;;;10.15;;
74503;SDS011;62988;55.776;37.544;2023-09-19T06:55:35;22.08;;;10.30;;
74503;SDS011;62988;55.776;37.544;2023-09-19T06:58:00;16.02;;;10.68;;
74503;SDS011;62988;55.776;37.544;2023-09-19T07:00:26;20.33;;;10.47;;
74503;SDS011;62988;55.776;37.544;2023-09-19T07:03:06;19.50;;;10.77;;
74503;SDS011;62988;55.776;37.544;2023-09-19T07:05:36;16.20;;;8.80;;
74503;SDS011;62988;55.776;37.544;2023-09-19T07:08:02;19.35;;;10.57;;
74503;SDS011;62988;55.776;37.544;2023-09-19T07:10:28;21.20;;;12.23;;
74503;SDS011;62988;55.776;37.544;2023-09-19T07:13:06;20.58;;;11.80;;
74503;SDS011;62988;55.776;37.544;2023-09-19T07:15:34;26.13;;;12.13;;
74503;SDS011;62988;55.776;37.544;2023-09-19T07:18:01;24.05;;;11.55;;
74503;SDS011;62988;55.776;37.544;2023-09-19T07:20:27;19.95;;;10.68;;
74503;SDS011;62988;55.776;37.544;2023-09-19T07:22:54;21.48;;;11.32;;
74503;SDS011;62988;55.776;37.544;2023-09-19T07:25:20;21.10;;;10.97;;
74503;SDS011;62988;55.776;37.544;2023-09-19T07:27:45;19.40;;;11.07;;
74503;SDS011;62988;55.776;37.544;2023-09-19T07:30:11;19.57;;;10.93;;
74503;SDS011;62988;55.776;37.544;2023-09-19T07:32:37;17.75;;;9.85;;
74503;SDS011;62988;55.776;37.544;2023-09-19T07:35:03;26.65;;;11.32;;
74503;SDS011;62988;55.776;37.544;2023-09-19T07:37:29;21.10;;;11.50;;
74503;SDS011;62988;55.776;37.544;2023-09-19T07:39:59;24.20;;;11.57;;
74503;SDS011;62988;55.776;37.544;2023-09-19T07:42:26;19.17;;;10.88;;
74503;SDS011;62988;55.776;37.544;2023-09-19T07:44:51;23.48;;;11.65;;
74503;SDS011;62988;55.776;37.544;2023-09-19T07:47:19;19.38;;;11.10;;
74503;SDS011;62988;55.776;37.544;2023-09-19T07:49:46;24.83;;;11.07;;
74503;SDS011;62988;55.776;37.544;2023-09-19T07:52:12;20.02;;;12.20;;
74503;SDS011;62988;55.776;37.544;2023-09-19T07:54:38;27.73;;;11.88;;
74503;SDS011;62988;55.776;37.544;2023-09-19T07:57:04;23.87;;;12.40;;
74503;SDS011;62988;55.776;37.544;2023-09-19T07:59:29;22.05;;;11.15;;
74503;SDS011;62988;55.776;37.544;2023-09-19T08:01:54;22.83;;;11.65;;
74503;SDS011;62988;55.776;37.544;2023-09-19T08:04:20;21.85;;;12.23;;
74503;SDS011;62988;55.776;37.544;2023-09-19T08:06:45;23.83;;;11.37;;
74503;SDS011;62988;55.776;37.544;2023-09-19T08:09:11;24.20;;;11.57;;
74503;SDS011;62988;55.776;37.544;2023-09-19T08:11:37;22.38;;;12.45;;
74503;SDS011;62988;55.776;37.544;2023-09-19T08:14:04;27.60;;;12.25;;
74503;SDS011;62988;55.776;37.544;2023-09-19T08:16:30;22.20;;;11.75;;
74503;SDS011;62988;55.776;37.544;2023-09-19T08:18:56;26.30;;;11.20;;
74503;SDS011;62988;55.776;37.544;2023-09-19T08:21:21;21.70;;;11.30;;
74503;SDS011;62988;55.776;37.544;2023-09-19T08:23:48;24.60;;;12.50;;
74503;SDS011;62988;55.776;37.544;2023-09-19T08:26:14;26.67;;;12.70;;
74503;SDS011;62988;55.776;37.544;2023-09-19T08:28:39;23.67;;;10.50;;
74503;SDS011;62988;55.776;37.544;2023-09-19T08:31:06;27.80;;;11.50;;
74503;SDS011;62988;55.776;37.544;2023-09-19T08:33:35;25.42;;;11.75;;
74503;SDS011;62988;55.776;37.544;2023-09-19T08:38:26;18.57;;;10.87;;
74503;SDS011;62988;55.776;37.544;2023-09-19T08:40:58;23.40;;;12.27;;
74503;SDS011;62988;55.776;37.544;2023-09-19T08:45:49;22.83;;;12.18;;
74503;SDS011;62988;55.776;37.544;2023-09-19T08:48:25;20.53;;;10.97;;
74503;SDS011;62988;55.776;37.544;2023-09-19T08:51:06;23.23;;;11.05;;
74503;SDS011;62988;55.776;37.544;2023-09-19T08:53:42;26.90;;;11.63;;
74503;SDS011;62988;55.776;37.544;2023-09-19T08:56:14;22.70;;;11.98;;
74503;SDS011;62988;55.776;37.544;2023-09-19T08:58:45;22.40;;;12.48;;
74503;SDS011;62988;55.776;37.544;2023-09-19T09:01:13;28.77;;;11.85;;
74503;SDS011;62988;55.776;37.544;2023-09-19T09:03:39;23.27;;;12.10;;
74503;SDS011;62988;55.776;37.544;2023-09-19T09:06:06;21.15;;;11.65;;
74503;SDS011;62988;55.776;37.544;2023-09-19T09:08:32;21.48;;;11.93;;
74503;SDS011;62988;55.776;37.544;2023-09-19T09:10:58;21.70;;;11.85;;
74503;SDS011;62988;55.776;37.544;2023-09-19T09:13:24;19.20;;;11.23;;
74503;SDS011;62988;55.776;37.544;2023-09-19T09:15:51;24.92;;;12.23;;
74503;SDS011;62988;55.776;37.544;2023-09-19T09:18:16;17.95;;;10.30;;
74503;SDS011;62988;55.776;37.544;2023-09-19T09:20:43;24.13;;;11.50;;
74503;SDS011;62988;55.776;37.544;2023-09-19T09:23:10;22.42;;;11.90;;
74503;SDS011;62988;55.776;37.544;2023-09-19T09:25:48;23.23;;;12.52;;
74503;SDS011;62988;55.776;37.544;2023-09-19T09:28:18;21.30;;;12.73;;
74503;SDS011;62988;55.776;37.544;2023-09-19T09:30:44;23.92;;;11.77;;
74503;SDS011;62988;55.776;37.544;2023-09-19T09:33:10;21.13;;;11.40;;
74503;SDS011;62988;55.776;37.544;2023-09-19T09:35:37;24.45;;;12.35;;
74503;SDS011;62988;55.776;37.544;2023-09-19T09:38:04;22.20;;;12.20;;
74503;SDS011;62988;55.776;37.544;2023-09-19T09:40:46;21.67;;;11.60;;
74503;SDS011;62988;55.776;37.544;2023-09-19T09:43:28;26.02;;;11.07;;
74503;SDS011;62988;55.776;37.544;2023-09-19T09:46:36;24.17;;;11.52;;
74503;SDS011;62988;55.776;37.544;2023-09-19T09:48:55;17.35;;;10.85;;
74503;SDS011;62988;55.776;37.544;2023-09-19T09:51:41;24.55;;;12.18;;
74503;SDS011;62988;55.776;37.544;2023-09-19T09:54:17;18.13;;;11.40;;
74503;SDS011;62988;55.776;37.544;2023-09-19T09:56:56;26.40;;;11.80;;
74503;SDS011;62988;55.776;37.544;2023-09-19T09:59:51;19.50;;;11.98;;
74503;SDS011;62988;55.776;37.544;2023-09-19T10:05:14;24.02;;;11.50;;
74503;SDS011;62988;55.776;37.544;2023-09-19T10:07:50;27.38;;;13.18;;
74503;SDS011;62988;55.776;37.544;2023-09-19T10:10:34;20.27;;;11.52;;
74503;SDS011;62988;55.776;37.544;2023-09-19T10:13:06;19.30;;;12.15;;
74503;SDS011;62988;55.776;37.544;2023-09-19T10:15:32;28.35;;;11.55;;
74503;SDS011;62988;55.776;37.544;2023-09-19T10:18:00;23.38;;;11.85;;
74503;SDS011;62988;55.776;37.544;2023-09-19T10:20:26;23.67;;;12.10;;
74503;SDS011;62988;55.776;37.544;2023-09-19T10:23:01;22.20;;;12.00;;
74503;SDS011;62988;55.776;37.544;2023-09-19T10:25:26;20.10;;;12.10;;
74503;SDS011;62988;55.776;37.544;2023-09-19T10:28:01;22.42;;;11.48;;
74503;SDS011;62988;55.776;37.544;2023-09-19T10:30:31;21.92;;;11.77;;
74503;SDS011;62988;55.776;37.544;2023-09-19T10:33:03;18.25;;;10.02;;
74503;SDS011;62988;55.776;37.544;2023-09-19T10:35:29;22.10;;;11.00;;
74503;SDS011;62988;55.776;37.544;2023-09-19T10:37:55;24.17;;;11.85;;
74503;SDS011;62988;55.776;37.544;2023-09-19T10:40:22;20.55;;;9.52;;
74503;SDS011;62988;55.776;37.544;2023-09-19T10:42:55;17.92;;;10.50;;
74503;SDS011;62988;55.776;37.544;2023-09-19T10:45:23;15.07;;;10.23;;
74503;SDS011;62988;55.776;37.544;2023-09-19T10:47:51;18.02;;;11.02;;
74503;SDS011;62988;55.776;37.544;2023-09-19T10:50:20;20.20;;;11.00;;
74503;SDS011;62988;55.776;37.544;2023-09-19T10:52:49;22.00;;;11.23;;
74503;SDS011;62988;55.776;37.544;2023-09-19T10:55:17;20.58;;;11.15;;
74503;SDS011;62988;55.776;37.544;2023-09-19T10:57:44;15.10;;;10.18;;
74503;SDS011;62988;55.776;37.544;2023-09-19T11:00:09;20.42;;;11.20;;
74503;SDS011;62988;55.776;37.544;2023-09-19T11:05:40;21.70;;;11.95;;
74503;SDS011;62988;55.776;37.544;2023-09-19T11:08:09;20.98;;;11.65;;
74503;SDS011;62988;55.776;37.544;2023-09-19T11:10:46;22.13;;;11.50;;
74503;SDS011;62988;55.776;37.544;2023-09-19T11:13:25;17.27;;;11.68;;
74503;SDS011;62988;55.776;37.544;2023-09-19T11:26:40;18.00;;;11.10;;
74503;SDS011;62988;55.776;37.544;2023-09-19T11:29:24;21.30;;;10.60;;
74503;SDS011;62988;55.776;37.544;2023-09-19T11:31:50;20.65;;;11.25;;
74503;SDS011;62988;55.776;37.544;2023-09-19T11:37:00;16.58;;;10.40;;
74503;SDS011;62988;55.776;37.544;2023-09-19T11:39:26;22.05;;;11.82;;
74503;SDS011;62988;55.776;37.544;2023-09-19T11:41:52;20.67;;;12.30;;
74503;SDS011;62988;55.776;37.544;2023-09-19T11:46:55;19.77;;;11.10;;
74503;SDS011;62988;55.776;37.544;2023-09-19T11:49:26;24.23;;;11.15;;
74503;SDS011;62988;55.776;37.544;2023-09-19T11:51:57;18.27;;;10.73;;
74503;SDS011;62988;55.776;37.544;2023-09-19T11:56:53;20.25;;;10.35;;
74503;SDS011;62988;55.776;37.544;2023-09-19T11:59:23;18.25;;;10.85;;
74503;SDS011;62988;55.776;37.544;2023-09-19T12:01:51;17.42;;;11.05;;
74503;SDS011;62988;55.776;37.544;2023-09-19T12:04:33;20.90;;;11.23;;
74503;SDS011;62988;55.776;37.544;2023-09-19T12:06:58;23.95;;;10.75;;
74503;SDS011;62988;55.776;37.544;2023-09-19T12:09:26;24.88;;;10.48;;
74503;SDS011;62988;55.776;37.544;2023-09-19T12:11:52;17.15;;;10.13;;
74503;SDS011;62988;55.776;37.544;2023-09-19T12:14:26;16.65;;;9.77;;
74503;SDS011;62988;55.776;37.544;2023-09-19T12:16:58;15.05;;;9.68;;
74503;SDS011;62988;55.776;37.544;2023-09-19T12:19:28;20.77;;;10.57;;
74503;SDS011;62988;55.776;37.544;2023-09-19T12:21:54;25.83;;;10.50;;
74503;SDS011;62988;55.776;37.544;2023-09-19T12:24:21;20.08;;;9.40;;
74503;SDS011;62988;55.776;37.544;2023-09-19T12:26:47;21.17;;;10.33;;
74503;SDS011;62988;55.776;37.544;2023-09-19T12:29:22;29.48;;;10.10;;
74503;SDS011;62988;55.776;37.544;2023-09-19T12:31:48;21.50;;;10.43;;
74503;SDS011;62988;55.776;37.544;2023-09-19T12:34:16;28.35;;;9.82;;
74503;SDS011;62988;55.776;37.544;2023-09-19T12:36:42;22.92;;;11.45;;
74503;SDS011;62988;55.776;37.544;2023-09-19T12:39:07;25.77;;;11.03;;
74503;SDS011;62988;55.776;37.544;2023-09-19T12:41:34;14.20;;;8.93;;
74503;SDS011;62988;55.776;37.544;2023-09-19T12:44:00;20.35;;;10.40;;
74503;SDS011;62988;55.776;37.544;2023-09-19T12:46:26;20.15;;;9.70;;
74503;SDS011;62988;55.776;37.544;2023-09-19T12:49:14;20.63;;;9.73;;
74503;SDS011;62988;55.776;37.544;2023-09-19T12:51:37;24.65;;;10.82;;
74503;SDS011;62988;55.776;37.544;2023-09-19T12:54:02;21.02;;;9.88;;
74503;SDS011;62988;55.776;37.544;2023-09-19T12:56:30;19.65;;;10.20;;
74503;SDS011;62988;55.776;37.544;2023-09-19T12:59:05;22.77;;;10.90;;
74503;SDS011;62988;55.776;37.544;2023-09-19T13:01:32;23.13;;;9.85;;
74503;SDS011;62988;55.776;37.544;2023-09-19T13:04:39;19.65;;;9.40;;
74503;SDS011;62988;55.776;37.544;2023-09-19T13:06:53;18.23;;;10.02;;
74503;SDS011;62988;55.776;37.544;2023-09-19T13:09:20;21.90;;;10.40;;
74503;SDS011;62988;55.776;37.544;2023-09-19T13:11:46;19.92;;;9.63;;
74503;SDS011;62988;55.776;37.544;2023-09-19T13:24:49;23.27;;;10.18;;
74503;SDS011;62988;55.776;37.544;2023-09-19T13:27:16;14.82;;;9.23;;
74503;SDS011;62988;55.776;37.544;2023-09-19T13:29:41;19.63;;;9.20;;
74503;SDS011;62988;55.776;37.544;2023-09-19T13:32:07;15.13;;;8.43;;
74503;SDS011;62988;55.776;37.544;2023-09-19T13:34:33;18.55;;;8.32;;
74503;SDS011;62988;55.776;37.544;2023-09-19T13:36:58;19.47;;;8.43;;
74503;SDS011;62988;55.776;37.544;2023-09-19T13:39:25;17.13;;;8.02;;
74503;SDS011;62988;55.776;37.544;2023-09-19T13:41:50;24.27;;;8.38;;
74503;SDS011;62988;55.776;37.544;2023-09-19T13:44:16;17.35;;;7.32;;
74503;SDS011;62988;55.776;37.544;2023-09-19T13:46:42;18.17;;;7.60;;
74503;SDS011;62988;55.776;37.544;2023-09-19T13:49:10;17.58;;;7.35;;
74503;SDS011;62988;55.776;37.544;2023-09-19T13:51:36;21.52;;;6.30;;
74503;SDS011;62988;55.776;37.544;2023-09-19T13:54:02;11.73;;;5.30;;
74503;SDS011;62988;55.776;37.544;2023-09-19T13:56:28;12.35;;;5.57;;
74503;SDS011;62988;55.776;37.544;2023-09-19T13:58:56;12.48;;;6.07;;
74503;SDS011;62988;55.776;37.544;2023-09-19T14:01:22;12.48;;;6.20;;
74503;SDS011;62988;55.776;37.544;2023-09-19T14:03:47;10.73;;;5.38;;
74503;SDS011;62988;55.776;37.544;2023-09-19T14:06:15;16.30;;;6.70;;
74503;SDS011;62988;55.776;37.544;2023-09-19T14:08:41;13.25;;;5.85;;
74503;SDS011;62988;55.776;37.544;2023-09-19T14:11:06;12.20;;;5.50;;
74503;SDS011;62988;55.776;37.544;2023-09-19T14:13:32;13.52;;;5.90;;
74503;SDS011;62988;55.776;37.544;2023-09-19T14:15:57;14.80;;;6.32;;
74503;SDS011;62988;55.776;37.544;2023-09-19T14:18:22;19.83;;;6.15;;
74503;SDS011;62988;55.776;37.544;2023-09-19T14:20:48;12.95;;;6.10;;
74503;SDS011;62988;55.776;37.544;2023-09-19T14:23:13;15.02;;;6.78;;
74503;SDS011;62988;55.776;37.544;2023-09-19T14:25:39;16.80;;;6.63;;
74503;SDS011;62988;55.776;37.544;2023-09-19T14:28:04;16.33;;;6.50;;
74503;SDS011;62988;55.776;37.544;2023-09-19T14:30:32;14.95;;;6.45;;
74503;SDS011;62988;55.776;37.544;2023-09-19T14:32:58;13.48;;;6.07;;
74503;SDS011;62988;55.776;37.544;2023-09-19T14:35:23;14.60;;;5.75;;
74503;SDS011;62988;55.776;37.544;2023-09-19T14:37:49;13.97;;;5.87;;
74503;SDS011;62988;55.776;37.544;2023-09-19T14:40:14;13.43;;;6.40;;
74503;SDS011;62988;55.776;37.544;2023-09-19T14:42:43;18.70;;;7.20;;
74503;SDS011;62988;55.776;37.544;2023-09-19T14:45:10;14.63;;;6.05;;
74503;SDS011;62988;55.776;37.544;2023-09-19T14:47:36;14.07;;;6.85;;
74503;SDS011;62988;55.776;37.544;2023-09-19T14:50:02;13.40;;;6.43;;
74503;SDS011;62988;55.776;37.544;2023-09-19T14:52:31;16.88;;;6.80;;
74503;SDS011;62988;55.776;37.544;2023-09-19T14:54:57;16.23;;;6.57;;
74503;SDS011;62988;55.776;37.544;2023-09-19T14:57:23;14.07;;;7.30;;
74503;SDS011;62988;55.776;37.544;2023-09-19T14:59:49;17.27;;;7.65;;
74503;SDS011;62988;55.776;37.544;2023-09-19T15:02:15;21.55;;;7.82;;
74503;SDS011;62988;55.776;37.544;2023-09-19T15:04:42;17.70;;;7.18;;
74503;SDS011;62988;55.776;37.544;2023-09-19T15:07:12;16.98;;;7.53;;
74503;SDS011;62988;55.776;37.544;2023-09-19T15:09:37;23.83;;;8.63;;
74503;SDS011;62988;55.776;37.544;2023-09-19T15:12:03;16.73;;;8.33;;
74503;SDS011;62988;55.776;37.544;2023-09-19T15:14:28;22.48;;;8.20;;
74503;SDS011;62988;55.776;37.544;2023-09-19T15:16:54;17.23;;;8.52;;
74503;SDS011;62988;55.776;37.544;2023-09-19T15:19:20;18.77;;;8.10;;
74503;SDS011;62988;55.776;37.544;2023-09-19T15:21:47;14.93;;;7.63;;